Time;durP1;ratioP1;P1;durP2;ratioP2;P2;SDS_P1;SDS_P2;PMS_P1;PMS_P2;Temp;Humidity;BMP_temperature;BMP_pressure;BME280_temperature;BME280_humidity;BME280_pressure;Samples;Min_cycle;Max_cycle;Signal;HPM_P1;HPM_P2
2022/10/25 00:04:02;;;;;;;29.85;18.05;;;;;;;;;;10446324;28;20451;-94
2022/10/25 00:09:04;;;;;;;29.83;16.27;;;;;;;;;;10422472;28;20986;-96
2022/10/25 00:14:07;;;;;;;27.35;17.17;;;;;;;;;;10446238;28;20408;-96
2022/10/25 00:19:11;;;;;;;32.78;17.73;;;;;;;;;;10443362;28;20458;-96
2022/10/25 00:24:13;;;;;;;26.75;17.65;;;;;;;;;;10443988;28;20410;-96
2022/10/25 00:29:17;;;;;;;31.75;18.40;;;;;;;;;;10444808;28;20458;-94
2022/10/25 00:34:21;;;;;;;31.42;18.83;;;;;;;;;;10442895;28;20887;-96
2022/10/25 00:39:23;;;;;;;31.52;18.02;;;;;;;;;;10400416;28;20405;-95
2022/10/25 00:44:54;;;;;;;27.40;17.85;;;;;;;;;;10404239;28;20453;-96
2022/10/25 00:50:02;;;;;;;29.10;17.40;;;;;;;;;;10409307;28;20466;-96
2022/10/25 00:55:06;;;;;;;32.90;18.77;;;;;;;;;;10406668;28;20407;-96
2022/10/25 01:00:10;;;;;;;26.48;16.52;;;;;;;;;;10403347;28;20426;-95
2022/10/25 01:05:14;;;;;;;28.23;16.90;;;;;;;;;;10399785;28;20793;-95
2022/10/25 01:10:16;;;;;;;27.40;17.00;;;;;;;;;;10403884;28;20401;-95
2022/10/25 01:15:18;;;;;;;29.67;16.88;;;;;;;;;;10428670;28;20428;-96
2022/10/25 01:20:40;;;;;;;28.30;16.53;;;;;;;;;;10436219;28;21034;-94
2022/10/25 01:26:19;;;;;;;30.70;17.45;;;;;;;;;;10394604;28;21141;-96
2022/10/25 01:31:30;;;;;;;26.83;16.27;;;;;;;;;;10403698;28;20769;-95
2022/10/25 01:36:42;;;;;;;28.27;16.85;;;;;;;;;;10422411;28;20902;-95
2022/10/25 01:41:59;;;;;;;25.00;15.23;;;;;;;;;;10438201;28;20410;-96
2022/10/25 01:47:06;;;;;;;26.45;15.30;;;;;;;;;;10433366;28;20456;-95
2022/10/25 01:52:08;;;;;;;20.80;11.98;;;;;;;;;;10438627;28;21173;-96
2022/10/25 01:57:29;;;;;;;16.90;9.97;;;;;;;;;;10416076;28;20849;-95
2022/10/25 02:02:39;;;;;;;18.05;9.73;;;;;;;;;;10427049;28;20473;-96
2022/10/25 02:07:44;;;;;;;16.47;9.93;;;;;;;;;;10443442;28;20419;-95
2022/10/25 02:12:55;;;;;;;15.98;8.75;;;;;;;;;;10429064;28;20423;-95
2022/10/25 02:18:00;;;;;;;13.67;7.17;;;;;;;;;;10435019;28;20397;-96
2022/10/25 02:23:06;;;;;;;11.90;5.30;;;;;;;;;;10449679;28;21122;-95
2022/10/25 02:28:12;;;;;;;11.30;4.65;;;;;;;;;;10429945;28;20419;-96
2022/10/25 02:33:15;;;;;;;6.22;3.30;;;;;;;;;;10442752;28;20412;-96
2022/10/25 02:38:17;;;;;;;6.35;3.00;;;;;;;;;;10436182;28;20448;-96
2022/10/25 02:43:19;;;;;;;7.72;3.72;;;;;;;;;;10439597;28;20439;-96
2022/10/25 02:48:22;;;;;;;8.45;3.40;;;;;;;;;;10449983;28;20971;-95
2022/10/25 02:53:24;;;;;;;4.25;2.78;;;;;;;;;;10436652;28;20439;-96
2022/10/25 02:58:26;;;;;;;8.65;2.70;;;;;;;;;;10424790;28;20952;-96
2022/10/25 03:03:30;;;;;;;4.35;2.80;;;;;;;;;;10429495;28;20998;-96
2022/10/25 03:08:32;;;;;;;7.68;3.70;;;;;;;;;;10443191;28;20514;-96
2022/10/25 03:13:35;;;;;;;5.60;2.50;;;;;;;;;;10447615;28;21033;-95
2022/10/25 03:18:39;;;;;;;5.88;3.22;;;;;;;;;;10431779;28;20578;-96
2022/10/25 03:23:41;;;;;;;8.20;3.83;;;;;;;;;;10453820;28;20420;-96
2022/10/25 03:28:43;;;;;;;8.70;3.63;;;;;;;;;;10446205;28;20415;-95
2022/10/25 03:33:46;;;;;;;8.48;3.42;;;;;;;;;;10432840;28;21096;-95
2022/10/25 03:38:48;;;;;;;5.93;2.90;;;;;;;;;;10441434;28;20407;-93
2022/10/25 03:43:50;;;;;;;7.15;3.00;;;;;;;;;;10435334;28;20403;-94
2022/10/25 03:48:53;;;;;;;6.20;2.28;;;;;;;;;;10415693;28;20858;-96
2022/10/25 03:53:55;;;;;;;4.28;2.03;;;;;;;;;;10453316;28;20440;-93
2022/10/25 03:58:57;;;;;;;3.60;1.60;;;;;;;;;;10423220;28;20444;-94
2022/10/25 04:04:00;;;;;;;3.58;1.42;;;;;;;;;;10434990;28;20404;-95
2022/10/25 04:09:02;;;;;;;4.07;1.90;;;;;;;;;;10440660;28;20451;-92
2022/10/25 04:14:04;;;;;;;3.88;1.70;;;;;;;;;;10439623;22;20482;-89
2022/10/25 04:19:08;;;;;;;2.95;1.73;;;;;;;;;;10441033;28;20954;-88
2022/10/25 04:24:11;;;;;;;2.67;1.50;;;;;;;;;;10417581;28;20985;-90
2022/10/25 04:29:14;;;;;;;3.00;1.50;;;;;;;;;;10438989;28;20482;-90
2022/10/25 04:34:18;;;;;;;3.30;1.58;;;;;;;;;;10436996;28;20958;-88
2022/10/25 04:39:20;;;;;;;2.13;1.42;;;;;;;;;;10432284;28;21334;-88
2022/10/25 04:44:21;;;;;;;2.92;1.40;;;;;;;;;;10427004;28;20450;-89
2022/10/25 04:49:25;;;;;;;2.45;1.60;;;;;;;;;;10425641;28;20411;-89
2022/10/25 04:54:27;;;;;;;2.00;1.25;;;;;;;;;;10428457;28;20436;-89
2022/10/25 04:59:29;;;;;;;2.28;1.38;;;;;;;;;;10429157;28;20447;-88
2022/10/25 05:04:32;;;;;;;3.58;1.30;;;;;;;;;;10428862;28;20404;-88
2022/10/25 05:09:34;;;;;;;2.70;1.33;;;;;;;;;;10431799;28;20528;-88
2022/10/25 05:14:36;;;;;;;2.53;1.30;;;;;;;;;;10419565;28;20493;-88
2022/10/25 05:19:39;;;;;;;2.17;1.35;;;;;;;;;;10424032;28;20423;-89
2022/10/25 05:24:45;;;;;;;5.07;1.70;;;;;;;;;;10425643;28;20444;-88
2022/10/25 05:29:47;;;;;;;2.65;1.60;;;;;;;;;;10427416;28;20416;-86
2022/10/25 05:34:51;;;;;;;3.35;1.65;;;;;;;;;;10425284;28;20459;-88
2022/10/25 05:39:52;;;;;;;2.05;1.20;;;;;;;;;;10425170;28;20900;-88
2022/10/25 05:44:55;;;;;;;1.15;0.95;;;;;;;;;;10419046;28;20413;-86
2022/10/25 05:49:58;;;;;;;2.35;1.00;;;;;;;;;;10432307;28;20435;-87
2022/10/25 05:55:00;;;;;;;1.55;0.77;;;;;;;;;;10428809;28;20481;-88
2022/10/25 06:00:02;;;;;;;1.50;0.67;;;;;;;;;;10431917;28;20403;-88
2022/10/25 06:05:06;;;;;;;0.85;0.60;;;;;;;;;;10430508;28;20473;-86
2022/10/25 06:10:09;;;;;;;2.17;0.90;;;;;;;;;;10440966;28;20427;-87
2022/10/25 06:15:11;;;;;;;2.03;0.73;;;;;;;;;;10436150;28;20440;-86
2022/10/25 06:20:14;;;;;;;1.20;0.70;;;;;;;;;;10435094;28;20883;-87
2022/10/25 06:25:17;;;;;;;1.40;0.90;;;;;;;;;;10431112;28;20485;-87
2022/10/25 06:30:19;;;;;;;1.52;0.80;;;;;;;;;;10439407;28;20492;-88
2022/10/25 06:35:22;;;;;;;1.52;0.70;;;;;;;;;;10438534;28;20439;-88
2022/10/25 06:40:24;;;;;;;1.40;0.55;;;;;;;;;;10438424;28;20793;-87
2022/10/25 06:45:26;;;;;;;3.05;0.80;;;;;;;;;;10441506;28;20465;-89
2022/10/25 06:50:29;;;;;;;2.42;0.77;;;;;;;;;;10437101;28;20514;-88
2022/10/25 06:55:31;;;;;;;1.63;1.00;;;;;;;;;;10442710;28;20471;-88
2022/10/25 07:00:33;;;;;;;5.63;1.17;;;;;;;;;;10436269;28;20988;-88
2022/10/25 07:05:37;;;;;;;3.20;1.43;;;;;;;;;;10445347;28;20502;-88
2022/10/25 07:10:39;;;;;;;1.60;1.40;;;;;;;;;;10435834;28;20445;-89
2022/10/25 07:15:41;;;;;;;2.93;1.40;;;;;;;;;;10434778;28;20880;-89
2022/10/25 07:20:47;;;;;;;2.53;1.20;;;;;;;;;;10420032;28;20475;-87
2022/10/25 07:25:49;;;;;;;1.97;1.10;;;;;;;;;;10417582;28;20418;-86
2022/10/25 07:30:51;;;;;;;1.33;1.00;;;;;;;;;;10409994;28;20811;-86
2022/10/25 07:35:54;;;;;;;2.75;1.00;;;;;;;;;;10414043;28;20846;-86
2022/10/25 07:40:57;;;;;;;1.75;0.73;;;;;;;;;;10409931;28;20443;-86
2022/10/25 07:45:59;;;;;;;2.00;0.90;;;;;;;;;;10439473;28;20415;-85
2022/10/25 07:51:05;;;;;;;2.75;1.02;;;;;;;;;;10429018;28;20449;-87
2022/10/25 07:56:10;;;;;;;0.80;0.60;;;;;;;;;;10432925;28;20453;-89
2022/10/25 08:01:18;;;;;;;0.95;0.60;;;;;;;;;;10432847;28;20399;-89
2022/10/25 08:06:22;;;;;;;1.83;0.80;;;;;;;;;;10440490;28;20411;-89
2022/10/25 08:11:26;;;;;;;1.25;0.57;;;;;;;;;;10434758;28;20536;-89
2022/10/25 08:16:28;;;;;;;1.57;1.10;;;;;;;;;;10434263;28;20439;-89
2022/10/25 08:21:31;;;;;;;1.70;0.63;;;;;;;;;;10437751;28;20630;-89
2022/10/25 08:26:33;;;;;;;1.85;0.80;;;;;;;;;;10437461;28;20412;-89
2022/10/25 08:31:35;;;;;;;1.80;0.70;;;;;;;;;;10435878;28;20498;-89
2022/10/25 08:36:38;;;;;;;1.10;0.63;;;;;;;;;;10431120;28;20424;-88
2022/10/25 08:41:51;;;;;;;1.57;0.83;;;;;;;;;;10439008;28;20428;-88
2022/10/25 08:46:59;;;;;;;1.77;0.50;;;;;;;;;;10431454;28;20498;-89
2022/10/25 08:52:05;;;;;;;0.77;0.30;;;;;;;;;;10435459;28;20408;-88
2022/10/25 08:57:14;;;;;;;1.75;0.47;;;;;;;;;;10435220;28;20444;-88
2022/10/25 09:02:23;;;;;;;0.63;0.50;;;;;;;;;;10433070;28;20481;-89
2022/10/25 09:07:51;;;;;;;0.70;0.40;;;;;;;;;;10433714;28;20443;-89
2022/10/25 09:13:02;;;;;;;1.20;0.60;;;;;;;;;;10433097;28;20507;-88
2022/10/25 09:18:14;;;;;;;1.33;0.50;;;;;;;;;;10425791;28;20501;-88
2022/10/25 09:23:25;;;;;;;1.47;0.60;;;;;;;;;;10434044;28;20465;-88
2022/10/25 09:28:42;;;;;;;1.13;0.57;;;;;;;;;;10422991;28;20493;-88
2022/10/25 09:33:47;;;;;;;2.43;0.60;;;;;;;;;;10433369;28;20407;-88
2022/10/25 09:38:53;;;;;;;1.48;0.88;;;;;;;;;;10426560;28;20498;-88
2022/10/25 09:43:59;;;;;;;1.52;0.80;;;;;;;;;;10434065;28;20403;-88
2022/10/25 09:49:08;;;;;;;1.20;1.10;;;;;;;;;;10439215;28;20835;-88
2022/10/25 09:54:19;;;;;;;1.67;0.90;;;;;;;;;;10437578;28;20494;-88
2022/10/25 09:59:21;;;;;;;1.90;0.70;;;;;;;;;;10440890;28;20486;-88
2022/10/25 10:04:27;;;;;;;3.00;0.63;;;;;;;;;;10438381;28;20428;-88
2022/10/25 10:09:32;;;;;;;2.07;0.90;;;;;;;;;;10439394;28;20450;-87
2022/10/25 10:14:39;;;;;;;1.70;0.80;;;;;;;;;;10436969;28;20415;-86
2022/10/25 10:19:42;;;;;;;2.05;0.80;;;;;;;;;;10436045;28;20506;-86
2022/10/25 10:24:49;;;;;;;2.37;0.90;;;;;;;;;;10437967;28;20463;-87
2022/10/25 10:29:55;;;;;;;2.25;0.98;;;;;;;;;;10442460;28;20733;-88
2022/10/25 10:34:58;;;;;;;2.00;0.60;;;;;;;;;;10440422;28;20826;-86
2022/10/25 10:40:03;;;;;;;2.55;0.70;;;;;;;;;;10442827;28;20808;-88
2022/10/25 10:45:16;;;;;;;2.53;0.60;;;;;;;;;;10442698;28;20488;-88
2022/10/25 10:50:24;;;;;;;1.67;0.70;;;;;;;;;;10432752;28;20452;-88
2022/10/25 10:55:30;;;;;;;2.40;0.70;;;;;;;;;;10441962;28;21094;-89
2022/10/25 11:00:33;;;;;;;1.00;0.50;;;;;;;;;;10441466;28;20803;-88
2022/10/25 11:05:38;;;;;;;1.83;0.70;;;;;;;;;;10436617;28;20411;-88
2022/10/25 11:10:41;;;;;;;1.23;0.80;;;;;;;;;;10443931;28;20415;-89
2022/10/25 11:16:28;;;;;;;2.23;0.87;;;;;;;;;;10446605;28;20407;-90
2022/10/25 11:21:51;;;;;;;0.90;0.70;;;;;;;;;;10407597;28;20725;-89
2022/10/25 11:27:01;;;;;;;0.93;0.80;;;;;;;;;;10428232;28;20522;-89
2022/10/25 11:32:13;;;;;;;1.55;0.70;;;;;;;;;;10434306;28;20415;-90
2022/10/25 11:37:20;;;;;;;1.40;0.80;;;;;;;;;;10434190;28;20415;-89
2022/10/25 11:42:37;;;;;;;1.63;0.97;;;;;;;;;;10431651;28;20422;-90
2022/10/25 11:47:49;;;;;;;2.47;0.93;;;;;;;;;;10436241;28;21004;-88
2022/10/25 11:53:07;;;;;;;1.85;0.90;;;;;;;;;;10431877;28;20878;-88
2022/10/25 11:58:24;;;;;;;1.17;0.97;;;;;;;;;;10424812;28;20449;-88
2022/10/25 12:03:40;;;;;;;1.27;1.08;;;;;;;;;;10424111;28;20867;-88
2022/10/25 12:08:54;;;;;;;2.72;1.00;;;;;;;;;;10425478;28;20449;-87
2022/10/25 12:14:00;;;;;;;1.60;0.77;;;;;;;;;;10407591;28;20517;-88
2022/10/25 12:19:08;;;;;;;1.30;0.70;;;;;;;;;;10410376;28;20439;-88
2022/10/25 12:24:18;;;;;;;1.53;0.80;;;;;;;;;;10421837;28;20437;-87
2022/10/25 12:29:27;;;;;;;1.60;0.70;;;;;;;;;;10427653;28;20977;-88
2022/10/25 12:34:38;;;;;;;3.27;0.83;;;;;;;;;;10429610;28;20453;-88
2022/10/25 12:39:41;;;;;;;2.40;0.90;;;;;;;;;;10438105;28;20461;-88
2022/10/25 12:45:10;;;;;;;1.10;0.68;;;;;;;;;;10432627;28;20840;-90
2022/10/25 12:50:44;;;;;;;2.25;0.40;;;;;;;;;;10409586;28;20953;-89
2022/10/25 12:55:58;;;;;;;2.08;0.57;;;;;;;;;;10402698;28;20408;-89
2022/10/25 13:01:21;;;;;;;1.00;0.60;;;;;;;;;;10417901;28;20482;-89
2022/10/25 13:06:33;;;;;;;3.00;0.60;;;;;;;;;;10424989;28;20466;-89
2022/10/25 13:11:38;;;;;;;0.70;0.70;;;;;;;;;;10427610;28;20423;-90
2022/10/25 13:16:42;;;;;;;1.20;0.60;;;;;;;;;;10432677;28;20461;-90
2022/10/25 13:22:23;;;;;;;3.20;0.60;;;;;;;;;;10427540;28;20406;-90
2022/10/25 13:27:26;;;;;;;1.83;0.50;;;;;;;;;;10412020;28;20502;-89
2022/10/25 13:32:33;;;;;;;2.58;0.77;;;;;;;;;;10430171;28;23511;-90
2022/10/25 13:37:44;;;;;;;1.17;0.57;;;;;;;;;;10433837;28;20502;-90
2022/10/25 13:42:47;;;;;;;5.63;1.85;;;;;;;;;;10440779;28;20485;-90
2022/10/25 13:47:54;;;;;;;2.55;1.02;;;;;;;;;;10428388;28;20455;-90
2022/10/25 13:53:01;;;;;;;1.58;0.68;;;;;;;;;;10428884;28;20493;-90
2022/10/25 13:58:39;;;;;;;1.50;0.60;;;;;;;;;;10426958;28;20427;-90
2022/10/25 14:03:50;;;;;;;1.42;0.50;;;;;;;;;;10432593;28;20418;-90
2022/10/25 14:08:58;;;;;;;2.60;0.70;;;;;;;;;;10435739;28;20423;-89
2022/10/25 14:14:05;;;;;;;0.73;0.50;;;;;;;;;;10422352;28;21224;-91
2022/10/25 14:19:15;;;;;;;1.85;0.70;;;;;;;;;;10425604;28;20427;-89
2022/10/25 14:24:18;;;;;;;1.50;0.80;;;;;;;;;;10429611;28;20431;-90
2022/10/25 14:29:21;;;;;;;2.43;0.73;;;;;;;;;;10439468;28;20427;-89
2022/10/25 14:34:28;;;;;;;1.10;0.52;;;;;;;;;;10440517;28;20507;-90
2022/10/25 14:39:30;;;;;;;3.42;0.63;;;;;;;;;;10436366;28;20843;-90
2022/10/25 14:44:44;;;;;;;2.75;0.77;;;;;;;;;;10433805;28;20492;-90
2022/10/25 14:49:48;;;;;;;0.95;0.65;;;;;;;;;;10437942;28;20935;-90
2022/10/25 14:54:55;;;;;;;2.63;1.15;;;;;;;;;;10429326;28;20431;-90
2022/10/25 15:00:00;;;;;;;4.47;1.13;;;;;;;;;;10443201;28;20458;-88
2022/10/25 15:05:05;;;;;;;2.88;1.10;;;;;;;;;;10438955;28;20423;-88
2022/10/25 15:10:42;;;;;;;2.60;0.87;;;;;;;;;;10430195;28;20518;-88
2022/10/25 15:15:47;;;;;;;1.43;0.70;;;;;;;;;;10423493;28;20489;-90
2022/10/25 15:20:49;;;;;;;1.25;0.80;;;;;;;;;;10414735;28;20435;-90
2022/10/25 15:25:52;;;;;;;2.90;0.90;;;;;;;;;;10430483;28;20435;-88
2022/10/25 15:31:02;;;;;;;2.03;0.93;;;;;;;;;;10429859;28;20509;-88
2022/10/25 15:36:05;;;;;;;2.30;1.05;;;;;;;;;;10437024;28;20830;-89
2022/10/25 15:41:09;;;;;;;2.67;1.30;;;;;;;;;;10427513;28;20441;-88
2022/10/25 15:46:29;;;;;;;2.55;1.10;;;;;;;;;;10436997;28;20941;-88
2022/10/25 15:51:33;;;;;;;6.78;1.52;;;;;;;;;;10432475;28;20429;-89
2022/10/25 15:56:37;;;;;;;9.15;2.38;;;;;;;;;;10427470;28;20410;-89
2022/10/25 16:01:42;;;;;;;9.25;1.80;;;;;;;;;;10427193;28;20409;-88
2022/10/25 16:06:46;;;;;;;5.32;1.63;;;;;;;;;;10431866;28;20467;-88
2022/10/25 16:11:54;;;;;;;2.42;1.10;;;;;;;;;;10420694;28;20427;-88
2022/10/25 17:39:56;;;;;;;5.32;2.22;;;;;;;;;;10912823;22;20437;-96
2022/10/25 17:56:49;;;;;;;9.80;4.15;;;;;;;;;;10381788;28;20388;-96
2022/10/25 18:08:14;;;;;;;6.00;3.58;;;;;;;;;;10477172;28;20399;-96
2022/10/25 18:44:26;;;;;;;7.28;4.30;;;;;;;;;;11649049;22;20520;-96
2022/10/25 18:49:42;;;;;;;7.05;4.63;;;;;;;;;;10448429;28;20911;-96
2022/10/25 18:55:06;;;;;;;6.90;5.43;;;;;;;;;;10436898;28;20394;-96
2022/10/25 19:05:31;;;;;;;7.25;5.60;;;;;;;;;;10418638;28;20401;-96
2022/10/25 19:10:41;;;;;;;6.93;5.32;;;;;;;;;;10427050;28;20425;-96
2022/10/25 19:26:27;;;;;;;9.63;7.95;;;;;;;;;;10427465;28;20453;-96
2022/10/25 19:31:33;;;;;;;9.32;7.00;;;;;;;;;;10416576;28;20432;-96
2022/10/25 19:36:41;;;;;;;13.75;8.00;;;;;;;;;;10424016;28;20448;-95
2022/10/25 19:41:50;;;;;;;10.70;7.72;;;;;;;;;;10429596;28;20417;-96
2022/10/25 19:47:08;;;;;;;12.52;8.35;;;;;;;;;;10416489;28;20579;-96
2022/10/25 19:52:13;;;;;;;12.50;8.88;;;;;;;;;;10412489;28;20873;-96
2022/10/25 19:57:17;;;;;;;13.37;8.40;;;;;;;;;;10425452;28;20456;-96
2022/10/25 20:02:26;;;;;;;13.32;9.15;;;;;;;;;;10430692;28;20469;-96
2022/10/25 20:07:30;;;;;;;14.67;9.07;;;;;;;;;;10416483;28;20424;-96
2022/10/25 20:12:32;;;;;;;14.38;9.93;;;;;;;;;;10411834;28;20429;-96
2022/10/25 20:17:38;;;;;;;11.23;10.02;;;;;;;;;;10412750;28;20409;-95
2022/10/25 20:22:41;;;;;;;13.33;9.97;;;;;;;;;;10411588;28;20417;-96
2022/10/25 20:27:46;;;;;;;14.27;10.50;;;;;;;;;;10408795;28;20436;-95
2022/10/25 20:32:50;;;;;;;14.45;11.10;;;;;;;;;;10406174;28;20913;-96
2022/10/25 20:37:54;;;;;;;14.23;9.57;;;;;;;;;;10406435;28;20479;-96
2022/10/25 20:42:58;;;;;;;12.88;8.98;;;;;;;;;;10407690;28;20402;-96
2022/10/25 20:48:05;;;;;;;12.90;8.68;;;;;;;;;;10406261;28;20796;-95
2022/10/25 20:53:18;;;;;;;13.05;8.38;;;;;;;;;;10399532;28;20421;-96
2022/10/25 20:58:25;;;;;;;11.68;7.72;;;;;;;;;;10429133;28;20463;-96
2022/10/25 21:14:21;;;;;;;13.37;8.73;;;;;;;;;;10431777;28;20479;-96
2022/10/25 21:19:25;;;;;;;12.13;9.93;;;;;;;;;;10433822;28;20449;-96
2022/10/25 21:24:38;;;;;;;15.10;10.07;;;;;;;;;;10419102;28;20518;-96
2022/10/25 21:29:45;;;;;;;13.10;9.18;;;;;;;;;;10416954;28;20421;-96
2022/10/25 21:34:49;;;;;;;12.17;8.60;;;;;;;;;;10412099;28;20414;-96
2022/10/25 21:39:51;;;;;;;13.32;9.55;;;;;;;;;;10402415;28;20520;-95
2022/10/25 22:36:04;;;;;;;9.57;7.40;;;;;;;;;;10449122;28;20405;-96
